Latest Weather Observations for Cooma Airport

IDN60901

Issued at 2:41 pm EST Monday 31 August 2015 (issued every 10 minutes, with the page automatically refreshed every 10 minutes)

About weather observations | Map of Canberra area stations | Latest observations for Canberra area | Other Formats
Station Details ID: 070217 Name: COOMA AIRPORT AWS Lat: -36.29 Lon: 148.97 Height: 930.0 m
Data from the previous 72 hours. | See also: Recent months at Cooma Airport
Date/Time
EST
Tmp

°C
App
Tmp
°C
Dew
Point
°C
Rel
Hum
%
Delta-T

°C
Wind Press
QNH
hPa
Press
MSL
hPa
Rain
since
9 am
mm
Dir
 
Spd
km/h
Gust
km/h
Spd
kts
Gust
kts
31/02:30pm 9.8 4.0 -0.4 49 4.3 S 20 30 11 16 1014.6 1015.7 0.0
31/02:00pm 9.0 3.7 -0.3 52 3.9 SW 17 22 9 12 1014.8 1015.9 0.0
31/01:30pm 8.2 3.2 1.1 61 3.1 S 17 24 9 13 1015.2 1016.4 0.0
31/01:00pm 7.3 3.9 2.0 69 2.3 S 9 17 5 9 1015.7 1016.8 0.0
31/12:30pm 6.9 2.9 2.6 74 1.9 S 13 17 7 9 1016.1 1017.3 0.0
31/12:00pm 5.9 2.0 0.9 70 2.1 SSW 11 22 6 12 1016.7 1017.8 0.0
31/11:30am 5.4 1.7 2.1 79 1.4 S 11 17 6 9 1017.1 1018.3 0.0
31/11:00am 4.8 0.3 2.0 82 1.2 SSW 15 20 8 11 1017.3 1018.5 0.0
31/10:49am 4.2 -0.4 1.4 82 1.2 SSW 15 20 8 11 1017.4 1018.6 0.0
31/10:30am 3.8 -0.4 1.5 85 1.0 SSW 13 20 7 11 1017.5 1018.7 0.0
31/10:00am 2.4 -1.9 0.8 89 0.6 SSW 13 19 7 10 1017.9 1019.0 0.0
31/09:30am 1.6 -3.1 0.7 94 0.4 SSW 15 19 8 10 1018.2 1019.4 0.0
31/09:00am 1.0 -3.5 -0.3 91 0.5 SSW 13 17 7 9 1018.2 1019.4 0.2
31/08:30am 1.1 -3.1 -0.7 88 0.7 SSW 11 15 6 8 1018.2 1019.4 0.2
31/08:23am 1.0 -2.8 -0.9 87 0.7 SSW 9 13 5 7 1018.1 1019.3 0.2
31/08:00am 0.0 -3.5 -1.4 90 0.5 S 7 9 4 5 1017.9 1019.0 0.2
31/07:30am -1.2 -3.5 -2.2 93 0.3 CALM 0 6 0 3 1017.6 1018.8 0.2
31/07:00am -2.3 -6.4 -2.8 96 0.1 SW 9 11 5 6 1017.6 1018.8 0.0
31/06:30am -2.5 -8.2 -3.5 93 0.2 SW 17 19 9 10 1017.4 1018.6 0.0
31/06:00am -2.7 -8.4 -3.5 94 0.2 SW 17 19 9 10 1017.3 1018.5 0.0
31/05:30am -2.2 -7.8 -2.9 95 0.1 SW 17 17 9 9 1017.3 1018.5 0.0
31/05:00am -3.5 -7.7 -4.3 94 0.1 SW 9 13 5 7 1017.4 1018.6 0.0
31/04:30am -3.2 -7.7 -3.5 98 0.0 SSW 11 13 6 7 1017.5 1018.7 0.0
31/04:00am -3.9 -6.9 -5.3 90 0.3 WSW 2 7 1 4 1017.4 1018.6 0.0
31/03:30am -1.8 -6.1 -1.9 99 0.0 WSW 11 15 6 8 1017.5 1018.7 0.0
31/03:00am -3.2 -5.7 -4.0 94 0.1 CALM 0 0 0 0 1017.9 1019.0 0.0
31/02:30am -2.7 -5.1 -3.5 94 0.2 CALM 0 0 0 0 1018.2 1019.4 0.0
31/02:00am -2.1 -4.4 -2.6 96 0.1 CALM 0 0 0 0 1018.7 1019.9 0.0
31/01:30am -1.2 -4.8 -1.8 96 0.2 WSW 7 13 4 7 1019.0 1020.2 0.0
31/01:00am -1.0 -4.9 -1.8 94 0.2 WSW 9 13 5 7 1019.1 1020.3 0.0
31/12:30am -0.7 -5.1 -2.1 90 0.5 W 11 13 6 7 1019.4 1020.6 0.0
31/12:00am 0.1 -4.5 -1.0 92 0.4 W 13 13 7 7 1019.7 1020.9 0.0
 
Date/Time
EST
Tmp

°C
App
Tmp
°C
Dew
Point
°C
Rel
Hum
%
Delta-T

°C
Wind Press
QNH
hPa
Press
MSL
hPa
Rain
since
9 am
mm
Dir
 
Spd
km/h
Gust
km/h
Spd
kts
Gust
kts
30/11:49pm 0.1 -4.1 -1.0 92 0.4 WSW 11 13 6 7 1019.7 1020.9 0.0
30/11:30pm 0.8 -2.9 -0.3 92 0.4 WSW 9 11 5 6 1019.8 1021.1 0.0
30/11:24pm 0.9 -2.8 -0.2 92 0.4 WSW 9 11 5 6 1019.8 1021.1 0.0
30/11:00pm 1.5 -2.1 0.3 92 0.5 WSW 9 13 5 7 1019.9 1021.2 0.0
30/10:30pm 2.0 -2.6 1.6 97 0.2 SW 15 17 8 9 1020.2 1021.4 0.0
30/10:00pm 1.0 -4.1 0.7 98 0.1 SW 17 20 9 11 1020.3 1021.5 0.0
30/09:30pm 1.3 -3.4 0.7 96 0.2 SW 15 19 8 10 1020.4 1021.6 0.0
30/09:00pm 0.9 -4.6 0.8 99 0.0 SW 19 20 10 11 1020.5 1021.7 0.0
30/08:30pm 0.5 -4.7 0.1 97 0.2 SW 17 19 9 10 1020.4 1021.6 0.0
30/08:00pm 1.2 -3.9 0.6 96 0.2 SSW 17 19 9 10 1020.0 1021.3 0.0
30/07:30pm 1.9 -3.5 1.2 95 0.3 SSW 19 20 10 11 1019.8 1021.1 0.0
30/07:00pm 1.8 -3.3 0.8 93 0.4 SW 17 20 9 11 1019.8 1021.1 0.0
30/06:30pm 2.6 -3.0 1.1 90 0.6 SW 20 24 11 13 1019.6 1020.8 0.0
30/06:00pm 3.3 -2.7 1.3 87 0.8 SSW 22 30 12 16 1019.4 1020.6 0.0
30/05:30pm 4.3 -2.0 1.7 83 1.1 SSW 24 33 13 18 1019.2 1020.4 0.0
30/05:00pm 5.4 -0.9 1.7 77 1.6 S 24 32 13 17 1019.0 1020.2 0.0
30/04:30pm 6.4 0.1 1.3 70 2.2 S 24 32 13 17 1018.7 1019.9 0.0
30/04:00pm 7.2 0.9 1.5 67 2.4 S 24 32 13 17 1018.6 1019.8 0.0
30/03:30pm 7.1 0.5 1.8 69 2.3 SSW 26 33 14 18 1018.7 1019.9 0.0
30/03:00pm 6.5 -0.1 1.8 72 2.0 SSW 26 35 14 19 1018.8 1020.1 0.0
30/02:30pm 6.7 -0.7 2.0 72 2.0 SSW 30 39 16 21 1018.6 1019.8 0.0
30/02:00pm 7.3 1.7 1.4 66 2.5 SSW 20 28 11 15 1018.7 1019.9 0.0
30/01:30pm 7.2 1.8 2.3 71 2.1 SSW 20 28 11 15 1019.0 1020.2 0.0
30/01:00pm 7.4 0.8 2.1 69 2.3 SW 26 33 14 18 1019.1 1020.3 0.0
30/12:30pm 6.9 0.3 2.2 72 2.0 SSW 26 32 14 17 1019.4 1020.6 0.0
30/12:00pm 6.2 -1.6 1.9 74 1.8 SW 32 41 17 22 1019.7 1020.9 0.0
30/11:30am 6.5 -1.2 3.5 81 1.3 SSW 33 43 18 23 1019.8 1021.1 0.0
30/11:00am 6.6 -2.4 2.7 76 1.7 SSW 39 46 21 25 1019.8 1021.1 0.0
30/10:30am 6.3 -1.6 2.2 75 1.8 SW 33 44 18 24 1020.3 1021.5 0.0
30/10:00am 6.0 -0.9 2.8 80 1.4 SW 28 39 15 21 1020.4 1021.6 0.0
30/09:30am 5.5 -1.8 2.2 79 1.4 SSW 30 39 16 21 1020.3 1021.5 0.0
30/09:00am 4.6 -3.1 2.1 84 1.1 SW 32 41 17 22 1020.5 1021.7 0.0
30/08:30am 4.5 -2.4 2.4 86 0.9 SW 28 39 15 21 1020.3 1021.5 0.0
30/08:18am 4.5 -1.9 3.0 90 0.7 SW 26 37 14 20 1020.2 1021.4 0.0
30/08:00am 3.9 -2.0 3.8 99 0.0 SW 24 32 13 17 1020.2 1021.4 0.0
30/07:30am 3.3 -2.3 3.2 99 0.0 SW 22 28 12 15 1020.0 1021.3 0.0
30/07:12am 3.2 -2.8 3.1 99 0.0 SW 24 30 13 16 1019.8 1021.1 0.0
30/07:04am 3.2 -2.8 3.1 99 0.0 SW 24 32 13 17 1019.7 1020.9 0.0
30/07:00am 3.2 -2.8 3.1 99 0.0 SW 24 32 13 17 1019.6 1020.8 0.0
30/06:30am 3.1 -2.6 2.7 97 0.2 SW 22 32 12 17 1019.6 1020.8 0.0
30/06:00am 3.2 -2.6 2.3 94 0.4 SW 22 30 12 16 1019.2 1020.4 0.0
30/05:30am 3.2 -2.2 2.6 96 0.3 SW 20 26 11 14 1019.2 1020.4 0.0
30/05:00am 3.3 -2.5 2.3 93 0.4 SW 22 30 12 16 1019.2 1020.4 0.0
30/04:30am 3.2 -3.0 1.9 91 0.5 SW 24 33 13 18 1019.1 1020.3 0.0
30/04:00am 3.3 -3.4 1.5 88 0.7 SW 26 35 14 19 1019.1 1020.3 0.0
30/03:57am 3.4 -3.3 1.6 88 0.7 SW 26 35 14 19 1019.1 1020.3 0.0
30/03:30am 3.4 -3.7 1.3 86 0.9 SW 28 37 15 20 1019.1 1020.3 0.0
30/03:00am 3.5 -3.2 1.5 87 0.8 SW 26 33 14 18 1019.3 1020.5 0.0
30/02:30am 3.4 -2.2 1.4 87 0.8 SW 20 26 11 14 1019.7 1020.9 0.0
30/02:00am 3.4 -3.3 1.4 87 0.8 SW 26 32 14 17 1019.9 1021.2 0.0
30/01:30am 3.6 -2.3 1.5 86 0.9 SW 22 32 12 17 1020.2 1021.4 0.0
30/01:00am 3.4 -1.9 1.8 89 0.7 SW 19 24 10 13 1020.4 1021.6 0.0
30/12:30am 3.5 -1.4 2.0 90 0.6 SW 17 24 9 13 1020.5 1021.7 0.0
30/12:00am 3.5 -2.4 2.0 90 0.6 SW 22 30 12 16 1020.5 1021.7 0.0
 
Date/Time
EST
Tmp

°C
App
Tmp
°C
Dew
Point
°C
Rel
Hum
%
Delta-T

°C
Wind Press
QNH
hPa
Press
MSL
hPa
Rain
since
9 am
mm
Dir
 
Spd
km/h
Gust
km/h
Spd
kts
Gust
kts
29/11:30pm 3.5 -2.7 2.2 91 0.5 SW 24 30 13 16 1020.3 1021.5 0.0
29/11:00pm 2.5 -2.8 1.6 94 0.4 SW 19 24 10 13 1020.4 1021.6 0.0
29/10:30pm 3.3 -2.3 1.5 88 0.7 SW 20 26 11 14 1020.3 1021.5 0.0
29/10:00pm 3.5 -1.9 1.2 85 0.9 SW 19 26 10 14 1020.2 1021.4 0.0
29/09:30pm 3.9 -2.1 0.9 81 1.2 SW 22 30 12 16 1019.8 1021.1 0.0
29/09:00pm 2.7 -3.0 0.8 87 0.8 SW 20 22 11 12 1020.0 1021.3 0.0
29/08:30pm 2.2 -3.4 -0.1 85 0.9 WSW 19 20 10 11 1020.0 1021.3 0.0
29/08:00pm 2.6 -3.9 0.3 85 0.9 SW 24 28 13 15 1019.9 1021.2 0.0
29/07:30pm 3.2 -2.5 0.8 84 1.0 SW 20 24 11 13 1019.8 1021.1 0.0
29/07:00pm 1.5 -3.8 -0.6 86 0.8 SW 17 19 9 10 1019.8 1021.1 0.0
29/06:30pm 2.2 -2.7 -0.2 84 0.9 SW 15 17 8 9 1019.7 1020.9 0.0
29/06:00pm 3.4 -1.0 0.3 80 1.2 SSW 13 15 7 8 1019.5 1020.7 0.0
29/05:30pm 5.3 -0.4 0.5 71 2.0 SSW 20 26 11 14 1019.4 1020.6 0.0
29/05:00pm 6.0 -0.6 -0.1 65 2.5 SSW 24 32 13 17 1018.8 1020.1 0.0
29/04:30pm 7.2 -0.8 0.2 61 2.9 SSW 32 41 17 22 1018.5 1019.7 0.0
29/04:00pm 7.9 -0.3 0.4 59 3.2 SSW 33 43 18 23 1018.2 1019.4 0.0
29/03:30pm 8.2 0.9 0.0 56 3.4 SSW 28 35 15 19 1018.2 1019.4 0.0
29/03:00pm 7.9 0.1 -1.1 53 3.7 SSW 30 41 16 22 1018.1 1019.3 0.0
29/02:30pm 8.5 1.5 -0.3 54 3.7 SW 26 37 14 20 1018.1 1019.3 0.0
29/02:00pm 9.1 1.0 -0.5 51 4.0 SW 32 43 17 23 1018.2 1019.4 0.0
29/01:30pm 8.8 0.5 -1.6 48 4.2 SW 32 44 17 24 1018.1 1019.3 0.0
29/01:00pm 8.9 1.0 -1.5 48 4.2 SSW 30 43 16 23 1018.3 1019.5 0.0
29/12:30pm 8.9 2.8 -2.4 45 4.5 SW 20 33 11 18 1018.7 1019.9 0.0
29/12:00pm 8.4 2.9 -2.0 48 4.2 SW 17 26 9 14 1019.2 1020.4 0.0
29/11:30am 7.7 1.8 -2.0 50 3.9 SW 19 28 10 15 1019.4 1020.6 0.0
29/11:00am 7.6 1.5 -2.4 49 3.9 SW 20 28 11 15 1019.8 1021.1 0.0
29/10:30am 7.3 0.4 -2.4 50 3.8 WSW 24 35 13 19 1020.0 1021.3 0.0
29/10:00am 6.8 0.9 -0.9 58 3.1 W 20 28 11 15 1020.0 1021.3 0.0
29/09:30am 5.9 0.9 1.6 74 1.8 W 17 24 9 13 1020.2 1021.4 0.0
29/09:00am 4.2 0.3 1.2 81 1.2 NW 11 17 6 9 1020.5 1021.7 1.0
29/08:33am 3.0 -0.5 1.5 90 0.6 WSW 9 15 5 8 1020.7 1022.0 -
29/08:30am 3.0 -0.8 1.7 91 0.5 SW 11 17 6 9 1020.6 1021.8 -
29/08:00am 2.3 -2.4 1.1 92 0.5 SSW 15 20 8 11 1020.9 1022.2 -
29/07:30am 2.1 -2.8 2.0 99 0.0 S 17 20 9 11 1020.6 1021.8 -
29/07:00am 1.9 -3.4 1.8 99 0.0 S 19 24 10 13 1020.3 1021.5 -
29/06:30am 2.7 -0.6 2.6 99 0.0 SW 9 13 5 7 1020.0 1021.3 -
29/06:00am 2.6 -1.1 2.5 99 0.0 SSW 11 17 6 9 1019.8 1021.1 -
29/05:30am 2.8 -0.8 2.7 99 0.0 S 11 15 6 8 1019.8 1021.1 -
29/05:00am 2.9 -0.3 2.8 99 0.0 S 9 13 5 7 1019.8 1021.1 -
29/04:59am 3.0 -0.2 2.9 99 0.0 S 9 13 5 7 1019.7 1020.9 -
29/04:30am 2.9 1.4 2.8 99 0.0 CALM 0 0 0 0 1019.8 1021.1 -
29/04:27am 3.0 1.5 2.9 99 0.0 CALM 0 0 0 0 1019.8 1021.1 -
29/04:00am 3.0 0.2 2.9 99 0.0 SSE 7 13 4 7 1019.8 1021.1 -
29/03:30am 3.1 1.6 3.0 99 0.0 CALM 0 0 0 0 1019.9 1021.2 -
29/03:00am 3.3 0.1 3.2 99 0.0 SW 9 11 5 6 1020.3 1021.5 0.4
29/02:30am 3.3 0.7 3.2 99 0.0 SW 6 7 3 4 1020.6 1021.8 -
29/02:00am 3.4 -0.1 3.3 99 0.0 S 11 13 6 7 1020.7 1022.0 -
29/01:30am 3.6 -0.3 3.5 99 0.0 S 13 15 7 8 1021.1 1022.4 -
29/01:00am 3.8 1.1 3.7 99 0.0 SW 7 11 4 6 1021.3 1022.5 -
29/12:30am 3.7 1.0 3.6 99 0.0 SSW 7 11 4 6 1021.3 1022.5 -
29/12:00am 3.8 0.3 3.7 99 0.0 SSW 11 15 6 8 1021.4 1022.6 -
 
Date/Time
EST
Tmp

°C
App
Tmp
°C
Dew
Point
°C
Rel
Hum
%
Delta-T

°C
Wind Press
QNH
hPa
Press
MSL
hPa
Rain
since
9 am
mm
Dir
 
Spd
km/h
Gust
km/h
Spd
kts
Gust
kts
28/11:30pm 4.0 -0.2 3.9 99 0.0 SSW 15 19 8 10 1021.5 1022.7 -
28/11:00pm 4.2 0.4 4.1 99 0.0 SW 13 17 7 9 1021.7 1023.0 -
28/10:30pm 4.3 0.9 4.2 99 0.0 SW 11 13 6 7 1021.8 1023.1 -
28/10:00pm 4.3 0.9 4.2 99 0.0 SW 11 15 6 8 1022.0 1023.3 -
28/09:39pm 3.6 2.2 3.5 99 0.0 CALM 0 0 0 0 1022.0 1023.3 -
28/09:30pm 3.4 2.0 3.3 99 0.0 CALM 0 0 0 0 1022.0 1023.3 -
28/09:25pm 3.4 2.0 3.3 99 0.0 CALM 0 0 0 0 1022.0 1023.3 -
28/09:14pm 3.2 1.7 3.1 99 0.0 CALM 0 0 0 0 1022.0 1023.3 -
28/09:12pm 3.2 1.7 3.1 99 0.0 CALM 0 0 0 0 1022.0 1023.3 -
28/09:00pm 3.0 1.5 2.9 99 0.0 CALM 0 0 0 0 1022.0 1023.3 -
28/08:59pm 3.0 1.5 2.9 99 0.0 CALM 0 0 0 0 1022.0 1023.3 -
28/08:30pm 1.8 0.1 1.7 99 0.0 CALM 0 0 0 0 1021.8 1023.1 -
28/08:00pm 2.6 -0.3 2.5 99 0.0 WNW 7 7 4 4 1021.5 1022.7 -
28/07:30pm 3.3 -0.3 3.2 99 0.0 WSW 11 13 6 7 1021.4 1022.6 -
28/07:00pm 4.5 1.2 4.4 99 0.0 SSW 11 13 6 7 1021.3 1022.5 -
28/06:45pm 4.8 1.9 4.4 97 0.2 SSW 9 13 5 7 1021.4 1022.6 -
28/06:30pm 5.3 2.0 4.7 96 0.3 SSW 11 13 6 7 1021.4 1022.6 -
28/06:16pm 5.5 2.3 4.9 96 0.3 WSW 11 13 6 7 1021.4 1022.6 -
28/06:00pm 5.8 1.7 4.4 91 0.6 SW 15 19 8 10 1021.3 1022.5 -
28/05:30pm 6.1 1.2 3.9 86 1.0 SSW 19 26 10 14 1020.7 1022.0 -
28/05:00pm 6.7 1.1 3.7 81 1.3 SSW 22 30 12 16 1020.2 1021.4 0.0
28/04:30pm 7.2 2.0 3.8 79 1.5 S 20 28 11 15 1019.9 1021.2 0.0
28/04:00pm 7.5 1.2 3.9 78 1.6 S 26 35 14 19 1019.9 1021.2 0.0
28/03:30pm 7.9 1.2 3.8 75 1.9 SSW 28 35 15 19 1019.6 1020.8 0.0
28/03:00pm 8.6 2.9 4.8 77 1.8 S 24 32 13 17 1019.6 1020.8 0.0

Latest Capital City Observations: Canberra | Sydney | Melbourne | Brisbane | Adelaide | Perth | Hobart | Darwin

Other Formats:

Comma delimited format used in spreadsheet applications
http://www.bom.gov.au/fwo/IDN60903/IDN60903.94921.axf

JavaScript Object Notation format (JSON) in row-major order
http://www.bom.gov.au/fwo/IDN60903/IDN60903.94921.json